Time;durP1;ratioP1;P1;durP2;ratioP2;P2;SDS_P1;SDS_P2;PMS_P1;PMS_P2;Temp;Humidity;BMP_temperature;BMP_pressure;BME280_temperature;BME280_humidity;BME280_pressure;Samples;Min_cycle;Max_cycle;Signal;HPM_P1;HPM_P2
2021/04/19 04:00:22;;;;;;;79.27;35.23;;;2.20;96.30;;;;;;5969136;23;20431;-82
2021/04/19 04:02:52;;;;;;;53.67;29.10;;;2.20;96.30;;;;;;4973346;28;20414;-82
2021/04/19 04:05:19;;;;;;;26.70;18.63;;;2.20;96.30;;;;;;4972683;28;20454;-82
2021/04/19 04:07:45;;;;;;;53.00;34.00;;;2.30;96.30;;;;;;4973846;28;20929;-82
2021/04/19 04:10:11;;;;;;;57.17;40.10;;;2.40;96.30;;;;;;4974903;28;20426;-81
2021/04/19 04:12:37;;;;;;;17.13;12.33;;;2.50;96.30;;;;;;4973631;28;20984;-81
2021/04/19 04:15:04;;;;;;;11.40;9.37;;;2.60;96.30;;;;;;4973738;28;20421;-82
2021/04/19 04:17:30;;;;;;;12.13;10.13;;;2.60;96.30;;;;;;4956925;28;20186;-82
2021/04/19 04:19:55;;;;;;;19.00;10.07;;;2.60;96.30;;;;;;4973253;28;20487;-82
2021/04/19 04:22:21;;;;;;;12.83;9.80;;;2.60;96.30;;;;;;4972987;28;20205;-81
2021/04/19 04:24:47;;;;;;;14.07;9.40;;;2.60;96.30;;;;;;4975199;28;20699;-82
2021/04/19 04:27:13;;;;;;;12.53;9.53;;;2.50;96.30;;;;;;4974918;28;20520;-81
2021/04/19 04:29:38;;;;;;;20.80;9.17;;;2.50;96.30;;;;;;4976405;28;20214;-81
2021/04/19 04:32:05;;;;;;;16.80;9.73;;;2.50;96.30;;;;;;4978060;28;20198;-82
2021/04/19 04:34:30;;;;;;;12.57;9.57;;;2.50;96.30;;;;;;4979096;28;20233;-82
2021/04/19 04:36:56;;;;;;;20.87;10.50;;;2.50;96.30;;;;;;4978705;28;20783;-81
2021/04/19 04:39:22;;;;;;;12.80;9.50;;;2.50;96.30;;;;;;4976766;28;20286;-81
2021/04/19 04:41:48;;;;;;;10.63;9.50;;;2.50;96.30;;;;;;4978439;28;20297;-82
2021/04/19 04:44:24;;;;;;;10.37;8.20;;;2.60;96.30;;;;;;4959928;29;20447;-83
2021/04/19 04:47:11;;;;;;;11.80;9.80;;;2.60;96.30;;;;;;4960303;28;20174;-82
2021/04/19 04:49:56;;;;;;;10.50;8.50;;;2.70;96.30;;;;;;4979228;28;20414;-82
2021/04/19 04:52:22;;;;;;;10.33;8.87;;;2.70;96.30;;;;;;4958843;28;20522;-83
2021/04/19 04:54:50;;;;;;;12.17;9.87;;;2.70;96.30;;;;;;4956679;29;20427;-82
2021/04/19 04:57:20;;;;;;;10.40;8.67;;;2.70;96.30;;;;;;4957842;28;20777;-82
2021/04/19 04:59:48;;;;;;;10.80;8.63;;;2.70;96.30;;;;;;4958091;28;20414;-85
2021/04/19 05:02:18;;;;;;;10.90;8.80;;;2.80;96.30;;;;;;4954814;28;20470;-85
2021/04/19 05:04:44;;;;;;;12.27;9.60;;;2.80;96.30;;;;;;4956526;29;20458;-85
2021/04/19 05:07:10;;;;;;;12.30;10.23;;;2.80;96.30;;;;;;4951636;29;20511;-86
2021/04/19 05:09:36;;;;;;;14.10;8.17;;;2.80;96.30;;;;;;4957019;28;20560;-85
2021/04/19 05:12:03;;;;;;;12.40;9.67;;;2.90;96.30;;;;;;4960618;28;20210;-86
2021/04/19 05:14:29;;;;;;;12.37;9.70;;;2.90;96.30;;;;;;4960293;28;20450;-86
2021/04/19 05:16:54;;;;;;;12.80;9.00;;;2.90;96.30;;;;;;4954807;28;20438;-87
2021/04/19 05:19:20;;;;;;;12.07;8.93;;;2.90;96.30;;;;;;4974278;28;20178;-85
2021/04/19 05:21:45;;;;;;;10.60;8.80;;;3.00;96.30;;;;;;4971902;28;20698;-86
2021/04/19 05:24:11;;;;;;;14.90;9.87;;;3.10;96.30;;;;;;4974400;28;20170;-85
2021/04/19 05:26:36;;;;;;;13.23;9.33;;;3.00;96.30;;;;;;4958951;28;20187;-85
2021/04/19 05:29:02;;;;;;;10.87;9.37;;;3.00;96.30;;;;;;4954497;29;20262;-85
2021/04/19 05:31:28;;;;;;;12.53;9.20;;;3.10;96.30;;;;;;4954573;28;20278;-86
2021/04/19 05:33:55;;;;;;;11.70;9.20;;;3.10;96.30;;;;;;4954738;29;20549;-86
2021/04/19 05:36:24;;;;;;;13.10;9.27;;;3.20;96.30;;;;;;4956442;29;20179;-86
2021/04/19 05:38:50;;;;;;;10.97;8.77;;;3.30;96.30;;;;;;4952977;28;20454;-85
2021/04/19 05:41:17;;;;;;;10.67;9.20;;;3.30;96.30;;;;;;4955458;28;20446;-86
2021/04/19 05:43:44;;;;;;;51.77;21.90;;;3.40;96.30;;;;;;4953958;28;20415;-86
2021/04/19 05:46:14;;;;;;;12.17;10.10;;;3.50;96.30;;;;;;4956587;28;20558;-85
2021/04/19 05:48:41;;;;;;;78.80;29.57;;;3.60;96.30;;;;;;4956146;28;20407;-85
2021/04/19 05:51:14;;;;;;;17.60;12.33;;;3.70;96.30;;;;;;4977761;28;20494;-86
2021/04/19 05:53:40;;;;;;;14.93;10.83;;;3.80;96.30;;;;;;4979851;28;20419;-87
2021/04/19 05:56:12;;;;;;;10.90;9.10;;;3.80;96.30;;;;;;4959836;29;20438;-85
2021/04/19 05:59:21;;;;;;;11.33;9.40;;;3.80;96.30;;;;;;4954009;29;20193;-85
2021/04/19 06:01:49;;;;;;;11.47;8.87;;;3.80;96.30;;;;;;4918484;28;20504;-85
2021/04/19 06:04:44;;;;;;;9.47;7.93;;;3.70;96.30;;;;;;4955291;28;20411;-85
2021/04/19 06:07:38;;;;;;;10.00;8.30;;;3.70;96.30;;;;;;4954847;29;20426;-85
2021/04/19 06:10:10;;;;;;;8.97;7.93;;;3.70;96.30;;;;;;4954134;29;20914;-85
2021/04/19 06:12:40;;;;;;;11.40;9.00;;;3.60;96.30;;;;;;4953977;29;20411;-85
2021/04/19 06:15:12;;;;;;;8.30;7.40;;;3.70;96.30;;;;;;4955234;29;20418;-85
2021/04/19 06:17:42;;;;;;;10.80;8.57;;;3.70;96.30;;;;;;4953458;29;20423;-86
2021/04/19 06:20:11;;;;;;;9.03;7.50;;;3.80;96.30;;;;;;4953894;29;20429;-85
2021/04/19 06:22:37;;;;;;;9.13;7.83;;;3.80;96.30;;;;;;4953545;29;20433;-85
2021/04/19 06:25:03;;;;;;;8.53;7.73;;;3.90;96.30;;;;;;4954740;29;20454;-85
2021/04/19 06:27:28;;;;;;;10.80;9.40;;;3.90;96.30;;;;;;4954363;28;20283;-85
2021/04/19 06:29:54;;;;;;;12.40;9.20;;;3.90;96.30;;;;;;4953360;29;20182;-85
2021/04/19 06:32:22;;;;;;;12.27;9.60;;;4.00;96.30;;;;;;4953566;28;20465;-85
2021/04/19 06:34:51;;;;;;;37.60;23.80;;;4.20;96.30;;;;;;4953562;29;20997;-85
2021/04/19 06:37:20;;;;;;;13.07;11.20;;;4.30;96.30;;;;;;4953040;28;20489;-85
2021/04/19 06:39:45;;;;;;;13.97;10.63;;;4.50;96.30;;;;;;4954803;29;20895;-85
2021/04/19 06:42:12;;;;;;;32.13;19.00;;;4.80;96.30;;;;;;4953309;28;20529;-85
2021/04/19 06:44:38;;;;;;;24.00;16.53;;;5.00;96.30;;;;;;4954574;29;20659;-85
2021/04/19 06:47:04;;;;;;;33.27;22.27;;;5.20;96.30;;;;;;4954023;29;20418;-85
2021/04/19 06:49:30;;;;;;;18.63;13.97;;;5.40;96.30;;;;;;4953331;28;20493;-85
2021/04/19 06:51:57;;;;;;;31.60;14.97;;;5.50;96.30;;;;;;4954001;28;20914;-85
2021/04/19 06:54:23;;;;;;;24.27;17.57;;;5.60;96.30;;;;;;4954548;29;20646;-85
2021/04/19 06:56:50;;;;;;;18.83;13.70;;;5.70;96.30;;;;;;4954409;29;20817;-84
2021/04/19 06:59:19;;;;;;;18.87;13.30;;;5.80;96.30;;;;;;4953970;28;20418;-85
2021/04/19 07:01:53;;;;;;;17.00;13.47;;;5.80;96.30;;;;;;4952967;28;20823;-84
2021/04/19 07:04:29;;;;;;;18.07;13.67;;;5.80;96.30;;;;;;4954319;29;20414;-84
2021/04/19 07:06:55;;;;;;;15.27;12.70;;;5.80;96.30;;;;;;4954334;29;20768;-84
2021/04/19 07:09:32;;;;;;;18.37;13.87;;;5.80;96.30;;;;;;4952769;29;20503;-84
2021/04/19 07:12:00;;;;;;;20.80;14.30;;;5.80;96.30;;;;;;4952961;28;20434;-84
2021/04/19 07:14:29;;;;;;;20.63;14.83;;;5.80;96.30;;;;;;4953171;29;20913;-84
2021/04/19 07:16:55;;;;;;;17.17;13.53;;;5.80;96.30;;;;;;4954261;28;20422;-84
2021/04/19 07:19:21;;;;;;;24.87;16.40;;;5.80;96.30;;;;;;4952982;29;20423;-84
2021/04/19 07:21:47;;;;;;;22.87;15.50;;;5.90;96.30;;;;;;4953231;28;20667;-84
2021/04/19 07:24:13;;;;;;;21.40;15.53;;;5.90;96.30;;;;;;4953257;29;20415;-84
2021/04/19 07:26:39;;;;;;;17.97;13.60;;;6.10;96.30;;;;;;4953015;29;20626;-84
2021/04/19 07:29:04;;;;;;;19.27;12.33;;;6.30;96.30;;;;;;4952561;29;20631;-84
2021/04/19 07:31:47;;;;;;;23.83;13.77;;;6.50;96.30;;;;;;4953093;28;20470;-84
2021/04/19 07:34:20;;;;;;;20.73;14.80;;;6.80;96.30;;;;;;4954292;28;20175;-84
2021/04/19 07:37:00;;;;;;;18.10;14.20;;;7.00;96.30;;;;;;4953004;28;20515;-84
2021/04/19 07:39:43;;;;;;;20.07;14.30;;;7.00;96.30;;;;;;4953115;29;20557;-84
2021/04/19 07:42:11;;;;;;;17.50;13.67;;;7.20;96.30;;;;;;4953108;28;20943;-84
2021/04/19 07:44:48;;;;;;;17.00;12.63;;;7.30;96.30;;;;;;4954639;29;20485;-84
2021/04/19 07:47:37;;;;;;;17.17;12.60;;;7.40;96.30;;;;;;4953775;29;20871;-84
2021/04/19 07:50:18;;;;;;;19.03;13.53;;;7.70;96.30;;;;;;4953316;29;20421;-84
2021/04/19 07:52:56;;;;;;;17.27;13.20;;;8.10;96.30;;;;;;4954197;29;20429;-84
2021/04/19 07:55:33;;;;;;;14.33;11.60;;;8.60;96.30;;;;;;4953581;28;20422;-83
2021/04/19 07:57:59;;;;;;;11.97;10.30;;;9.00;96.30;;;;;;4954173;29;20502;-84
2021/04/19 08:00:30;;;;;;;14.60;11.03;;;8.90;96.30;;;;;;4953217;28;20422;-84
2021/04/19 08:03:04;;;;;;;16.10;11.63;;;9.00;96.30;;;;;;4955705;28;20411;-84
2021/04/19 08:05:35;;;;;;;15.10;11.77;;;9.10;96.30;;;;;;4958354;29;21033;-84
2021/04/19 08:08:01;;;;;;;18.00;13.10;;;9.10;96.30;;;;;;4956953;29;20505;-83
2021/04/19 08:10:27;;;;;;;17.80;14.00;;;9.30;96.30;;;;;;4958137;28;20497;-83
2021/04/19 08:13:02;;;;;;;15.10;12.33;;;9.30;96.30;;;;;;4960124;29;20415;-83
2021/04/19 08:15:27;;;;;;;17.60;12.60;;;9.40;96.30;;;;;;4960082;29;20167;-83
2021/04/19 08:18:06;;;;;;;16.50;13.13;;;9.40;96.30;;;;;;4957024;29;20941;-83
2021/04/19 08:20:32;;;;;;;17.30;12.50;;;9.20;96.30;;;;;;4957629;28;20198;-84
2021/04/19 08:23:09;;;;;;;15.13;12.10;;;9.60;96.30;;;;;;4958538;28;20584;-84
2021/04/19 08:25:40;;;;;;;16.60;12.33;;;10.50;96.30;;;;;;4961965;29;20911;-83
2021/04/19 08:28:09;;;;;;;17.50;13.50;;;10.70;96.30;;;;;;4960256;29;20434;-83
2021/04/19 08:30:35;;;;;;;14.67;12.20;;;10.50;96.30;;;;;;4960903;28;20434;-84
2021/04/19 08:33:01;;;;;;;16.40;12.77;;;10.60;96.30;;;;;;4961406;28;20427;-82
2021/04/19 08:35:28;;;;;;;14.47;11.40;;;10.50;96.30;;;;;;4962623;28;20422;-84
2021/04/19 08:37:57;;;;;;;15.43;12.40;;;10.10;96.30;;;;;;4961272;29;20547;-83
2021/04/19 08:40:25;;;;;;;17.00;13.63;;;10.30;96.30;;;;;;4960478;28;20557;-83
2021/04/19 08:42:52;;;;;;;16.50;13.13;;;10.30;96.30;;;;;;4962615;29;20897;-84
2021/04/19 08:45:18;;;;;;;16.93;13.10;;;10.50;96.30;;;;;;4961529;29;20550;-83
2021/04/19 08:47:45;;;;;;;15.90;12.90;;;10.70;96.30;;;;;;4960657;28;20450;-83
2021/04/19 08:50:16;;;;;;;18.20;14.50;;;10.60;96.30;;;;;;4961404;28;20250;-84
2021/04/19 08:52:42;;;;;;;20.47;14.83;;;11.30;96.30;;;;;;4960941;29;20421;-83
2021/04/19 08:55:09;;;;;;;21.40;14.47;;;12.10;96.30;;;;;;4963001;28;20923;-83
2021/04/19 08:57:34;;;;;;;16.10;12.20;;;12.80;96.30;;;;;;4962631;28;20179;-82
2021/04/19 09:00:00;;;;;;;15.43;12.20;;;14.00;96.30;;;;;;4962564;29;20538;-83
2021/04/19 09:02:26;;;;;;;15.70;11.73;;;13.60;96.30;;;;;;4961795;28;20236;-84
2021/04/19 09:05:15;;;;;;;15.47;11.27;;;12.50;96.30;;;;;;4960952;28;20213;-84
2021/04/19 09:07:43;;;;;;;13.70;12.10;;;12.70;96.30;;;;;;4962449;29;20174;-82
2021/04/19 09:10:18;;;;;;;14.63;12.00;;;13.30;96.30;;;;;;4962621;29;20414;-83
2021/04/19 09:12:44;;;;;;;16.00;12.07;;;14.20;96.30;;;;;;4962498;28;20409;-83
2021/04/19 09:15:13;;;;;;;14.20;11.67;;;13.50;93.20;;;;;;4962194;28;20449;-83
2021/04/19 09:17:39;;;;;;;14.10;11.33;;;12.80;96.30;;;;;;4962592;28;20419;-83
2021/04/19 09:20:08;;;;;;;15.93;12.90;;;13.10;96.30;;;;;;4961826;28;20505;-83
2021/04/19 09:22:34;;;;;;;15.50;12.20;;;13.10;96.30;;;;;;4961069;28;20450;-83
2021/04/19 09:25:05;;;;;;;16.40;11.57;;;12.50;96.30;;;;;;4961573;29;21167;-83
2021/04/19 09:27:58;;;;;;;17.70;12.67;;;12.20;96.30;;;;;;4962897;29;20409;-82
2021/04/19 09:30:27;;;;;;;14.50;10.70;;;12.10;96.30;;;;;;4964650;28;20442;-83
2021/04/19 09:33:07;;;;;;;13.60;11.30;;;11.80;96.30;;;;;;4969856;29;20406;-85
2021/04/19 09:35:39;;;;;;;12.87;10.60;;;11.20;96.30;;;;;;4977439;28;20450;-85
2021/04/19 09:38:06;;;;;;;14.07;10.73;;;10.90;96.30;;;;;;4969890;29;20422;-83
2021/04/19 09:40:48;;;;;;;13.87;11.37;;;10.60;96.30;;;;;;4957651;28;20537;-84
2021/04/19 09:43:33;;;;;;;13.17;10.93;;;10.40;96.30;;;;;;4957179;29;20419;-83
2021/04/19 09:45:59;;;;;;;15.73;11.80;;;10.20;96.30;;;;;;4956758;29;20494;-83
2021/04/19 09:48:25;;;;;;;13.30;11.20;;;10.20;96.30;;;;;;4955598;29;20421;-84
2021/04/19 09:50:54;;;;;;;14.63;11.37;;;10.30;96.30;;;;;;4956004;28;20434;-83
2021/04/19 09:53:20;;;;;;;13.10;10.87;;;10.40;96.30;;;;;;4957136;29;20532;-84
2021/04/19 09:55:46;;;;;;;14.67;11.53;;;10.90;96.30;;;;;;4956514;28;20461;-84
2021/04/19 09:58:13;;;;;;;15.17;11.90;;;11.60;96.30;;;;;;4956040;28;20218;-84
2021/04/19 10:00:39;;;;;;;14.30;10.60;;;11.90;96.30;;;;;;4954044;28;20222;-84
2021/04/19 10:03:05;;;;;;;18.17;11.97;;;11.60;91.60;;;;;;4955129;29;20850;-82
2021/04/19 10:05:31;;;;;;;11.97;10.30;;;11.40;96.30;;;;;;4957357;29;20213;-83
2021/04/19 10:08:00;;;;;;;11.67;9.63;;;11.50;96.30;;;;;;4955240;29;20415;-83
2021/04/19 10:10:26;;;;;;;14.07;12.10;;;11.50;95.90;;;;;;4956598;28;20178;-83
2021/04/19 10:12:52;;;;;;;12.67;10.47;;;11.20;95.70;;;;;;4957657;29;20914;-84
2021/04/19 10:15:23;;;;;;;12.97;11.10;;;11.30;96.30;;;;;;4955553;29;20421;-83
2021/04/19 10:17:50;;;;;;;11.83;10.43;;;11.50;96.30;;;;;;4953510;28;20185;-85
2021/04/19 10:20:27;;;;;;;12.50;9.93;;;11.40;94.60;;;;;;4953800;28;20426;-85
2021/04/19 10:23:12;;;;;;;14.00;10.00;;;11.20;92.50;;;;;;4953979;29;20449;-85
2021/04/19 10:26:04;;;;;;;13.30;10.10;;;11.70;93.00;;;;;;4953076;28;20454;-85
2021/04/19 10:28:40;;;;;;;10.90;9.23;;;12.10;92.00;;;;;;4953506;28;20481;-85
2021/04/19 10:31:14;;;;;;;11.63;9.63;;;12.30;96.20;;;;;;4953827;28;20441;-85
2021/04/19 10:33:41;;;;;;;11.53;9.20;;;12.20;95.30;;;;;;4955348;28;20412;-85
2021/04/19 10:36:24;;;;;;;11.63;9.53;;;12.40;93.00;;;;;;4953807;28;20469;-85
2021/04/19 10:38:55;;;;;;;10.60;9.30;;;12.80;94.50;;;;;;4953214;29;20514;-85
2021/04/19 10:41:35;;;;;;;14.10;10.93;;;13.00;94.50;;;;;;4953221;28;20442;-85
2021/04/19 10:44:03;;;;;;;13.13;10.10;;;13.60;96.30;;;;;;4953542;29;20456;-85
2021/04/19 10:46:31;;;;;;;10.83;9.27;;;13.80;86.30;;;;;;4953368;29;20462;-84
2021/04/19 10:49:00;;;;;;;16.60;12.80;;;13.10;89.10;;;;;;4952963;29;20411;-84
2021/04/19 10:51:27;;;;;;;18.33;13.30;;;12.40;96.30;;;;;;4954485;28;20497;-85
2021/04/19 10:53:54;;;;;;;16.53;13.17;;;12.00;96.30;;;;;;4953496;29;20418;-85
2021/04/19 10:56:24;;;;;;;15.10;12.87;;;11.90;96.30;;;;;;4953425;28;20426;-85
2021/04/19 10:58:52;;;;;;;16.90;13.70;;;11.60;96.30;;;;;;4958318;28;20410;-83
2021/04/19 11:01:23;;;;;;;18.67;14.10;;;11.10;96.30;;;;;;4956037;28;20473;-84
2021/04/19 11:03:49;;;;;;;16.03;12.90;;;11.50;96.30;;;;;;4953265;29;20430;-84
2021/04/19 11:06:16;;;;;;;13.20;11.40;;;12.00;96.30;;;;;;4953252;29;20549;-85
2021/04/19 11:09:17;;;;;;;11.93;10.60;;;12.10;96.30;;;;;;4952940;29;20796;-85
2021/04/19 11:11:45;;;;;;;19.23;11.70;;;12.60;96.30;;;;;;4932634;29;20450;-85
2021/04/19 11:14:15;;;;;;;17.07;12.77;;;13.60;96.30;;;;;;4957454;29;20807;-85
2021/04/19 11:16:58;;;;;;;13.80;11.50;;;14.20;95.30;;;;;;4953513;29;20453;-85
2021/04/19 11:19:42;;;;;;;13.10;10.83;;;14.00;91.10;;;;;;4954081;29;20895;-85
2021/04/19 11:22:21;;;;;;;15.10;11.50;;;12.80;96.30;;;;;;4952869;28;20447;-86
2021/04/19 11:24:47;;;;;;;15.03;10.73;;;12.20;96.30;;;;;;4952926;29;20466;-85
2021/04/19 11:27:13;;;;;;;13.97;12.33;;;11.90;96.30;;;;;;4953773;29;20445;-85
2021/04/19 11:29:43;;;;;;;12.17;10.53;;;11.90;96.30;;;;;;4952837;29;20415;-84
2021/04/19 11:32:25;;;;;;;14.30;11.67;;;11.90;96.30;;;;;;4953005;28;20199;-85
2021/04/19 11:34:50;;;;;;;15.07;12.07;;;12.40;96.30;;;;;;4953165;29;20430;-85
2021/04/19 11:37:39;;;;;;;15.57;11.83;;;13.30;96.30;;;;;;4955337;28;20421;-85
2021/04/19 11:40:23;;;;;;;13.30;11.63;;;13.60;96.30;;;;;;4958009;28;20174;-86
2021/04/19 11:42:49;;;;;;;13.90;10.90;;;13.10;96.30;;;;;;4956913;29;20851;-85
2021/04/19 11:45:23;;;;;;;11.60;10.40;;;12.60;96.30;;;;;;4957858;29;20981;-85
2021/04/19 11:47:49;;;;;;;13.43;11.03;;;12.30;96.30;;;;;;4957547;29;21009;-85
2021/04/19 11:50:15;;;;;;;12.70;10.73;;;12.30;96.30;;;;;;4956685;28;20805;-85
2021/04/19 11:52:49;;;;;;;13.23;11.87;;;12.10;96.30;;;;;;4956014;29;20430;-85
2021/04/19 11:55:16;;;;;;;12.07;9.67;;;12.20;96.30;;;;;;4956593;28;20430;-85
2021/04/19 11:57:42;;;;;;;13.60;11.00;;;12.40;96.30;;;;;;4956184;29;20837;-85
2021/04/19 12:00:12;;;;;;;12.10;10.27;;;12.30;96.30;;;;;;4955381;28;20425;-85
2021/04/19 12:02:38;;;;;;;14.73;11.37;;;12.50;96.30;;;;;;4964688;28;20431;-84
2021/04/19 12:05:06;;;;;;;13.50;10.03;;;12.10;95.50;;;;;;4957636;28;20458;-85
2021/04/19 12:07:32;;;;;;;12.70;10.23;;;11.80;96.30;;;;;;4955867;28;20266;-84
2021/04/19 12:09:58;;;;;;;13.93;10.70;;;11.60;95.60;;;;;;4956349;28;20905;-84
2021/04/19 12:12:24;;;;;;;11.80;10.03;;;11.70;96.30;;;;;;4956187;28;20195;-84
2021/04/19 12:14:50;;;;;;;17.50;9.93;;;11.80;96.30;;;;;;4957487;28;20418;-85
2021/04/19 12:17:16;;;;;;;14.13;10.17;;;11.90;93.00;;;;;;4955790;29;20183;-85
2021/04/19 12:19:41;;;;;;;11.37;9.53;;;12.60;96.30;;;;;;4956068;29;20465;-84
2021/04/19 12:22:07;;;;;;;12.73;9.70;;;12.90;94.10;;;;;;4956140;28;20666;-85
2021/04/19 12:24:33;;;;;;;9.97;8.57;;;12.70;94.80;;;;;;4955976;28;20233;-85
2021/04/19 12:26:59;;;;;;;13.30;9.40;;;12.20;92.10;;;;;;4957144;29;20534;-84
2021/04/19 12:29:24;;;;;;;12.30;9.50;;;11.90;92.30;;;;;;4955686;29;20182;-84
2021/04/19 12:31:50;;;;;;;12.67;9.77;;;11.90;92.60;;;;;;4957092;28;20190;-85
2021/04/19 12:34:15;;;;;;;11.40;9.57;;;12.00;96.30;;;;;;4957159;29;20175;-84
2021/04/19 12:36:41;;;;;;;11.60;9.83;;;11.90;96.30;;;;;;4955822;28;20548;-84
2021/04/19 12:39:07;;;;;;;11.53;9.73;;;12.10;96.30;;;;;;4955333;29;20214;-84
2021/04/19 12:41:33;;;;;;;11.00;8.50;;;12.90;96.30;;;;;;4955677;28;20265;-84
2021/04/19 12:43:59;;;;;;;10.80;9.40;;;13.10;91.10;;;;;;4956992;28;20184;-84
2021/04/19 12:46:27;;;;;;;11.57;9.53;;;13.10;89.10;;;;;;4955488;29;20462;-83
2021/04/19 12:48:54;;;;;;;12.67;9.60;;;13.10;91.10;;;;;;4954510;28;20454;-84
2021/04/19 12:51:21;;;;;;;10.30;8.80;;;12.90;93.30;;;;;;4955437;28;20861;-84
2021/04/19 12:53:46;;;;;;;11.57;10.20;;;12.70;93.90;;;;;;4955440;28;20419;-84
2021/04/19 12:56:12;;;;;;;12.77;10.50;;;12.70;94.50;;;;;;4956656;28;20425;-84
2021/04/19 12:58:40;;;;;;;16.63;10.50;;;12.50;94.50;;;;;;4956698;28;20639;-84
2021/04/19 13:01:07;;;;;;;11.60;10.10;;;12.00;95.20;;;;;;4955210;28;20214;-83
2021/04/19 13:03:32;;;;;;;11.80;10.60;;;11.60;95.40;;;;;;4961471;29;20430;-83
2021/04/19 13:05:58;;;;;;;13.70;11.83;;;11.50;96.30;;;;;;4956500;29;20809;-83
2021/04/19 13:08:23;;;;;;;15.00;11.73;;;11.30;96.30;;;;;;4956068;28;20183;-84
2021/04/19 13:10:49;;;;;;;12.97;11.50;;;11.30;96.30;;;;;;4955246;28;20199;-83
2021/04/19 13:13:15;;;;;;;13.10;11.33;;;11.40;96.30;;;;;;4955556;29;20179;-84
2021/04/19 13:15:40;;;;;;;19.00;12.67;;;11.20;96.30;;;;;;4955793;28;20193;-83
2021/04/19 13:18:06;;;;;;;14.33;12.60;;;11.30;96.30;;;;;;4956502;28;20300;-83
2021/04/19 13:20:33;;;;;;;15.83;12.53;;;11.30;96.30;;;;;;4976580;28;20202;-83
2021/04/19 13:22:59;;;;;;;15.60;12.30;;;11.40;96.30;;;;;;4976020;29;20182;-83
2021/04/19 13:25:24;;;;;;;17.93;12.93;;;11.40;96.30;;;;;;4959805;28;20458;-84
2021/04/19 13:27:50;;;;;;;17.90;12.97;;;11.60;96.30;;;;;;4954723;29;20178;-83
2021/04/19 13:30:16;;;;;;;15.67;12.70;;;11.60;96.30;;;;;;4956085;28;20175;-84
2021/04/19 13:32:42;;;;;;;17.43;13.50;;;11.50;96.30;;;;;;4955366;29;20188;-83
2021/04/19 13:35:09;;;;;;;15.10;12.80;;;11.50;96.30;;;;;;4954725;28;20427;-84
2021/04/19 13:37:36;;;;;;;16.30;12.53;;;11.60;96.30;;;;;;4955524;29;20795;-84
2021/04/19 13:40:04;;;;;;;18.00;13.07;;;11.80;96.30;;;;;;4956607;29;20477;-84
2021/04/19 13:42:30;;;;;;;15.67;12.70;;;11.70;96.30;;;;;;4963656;28;20529;-84
2021/04/19 13:44:55;;;;;;;20.03;13.33;;;12.00;96.30;;;;;;4955427;29;20505;-84
2021/04/19 13:47:21;;;;;;;15.93;12.67;;;11.80;96.30;;;;;;4954642;28;20194;-84
2021/04/19 13:49:46;;;;;;;26.20;13.30;;;12.00;96.30;;;;;;4956256;28;20187;-83
2021/04/19 13:52:12;;;;;;;17.57;13.20;;;12.00;96.30;;;;;;4955621;28;20199;-83
2021/04/19 13:54:37;;;;;;;14.90;12.63;;;11.90;96.30;;;;;;4955107;29;20570;-83
2021/04/19 13:57:03;;;;;;;21.10;13.20;;;12.10;96.30;;;;;;4954480;29;20270;-84
2021/04/19 13:59:28;;;;;;;18.97;13.50;;;12.10;96.30;;;;;;4954271;28;20185;-84
2021/04/19 14:01:53;;;;;;;17.57;13.87;;;12.30;96.30;;;;;;4954404;28;20203;-84
2021/04/19 14:04:19;;;;;;;21.07;14.60;;;12.50;96.30;;;;;;4954291;28;20649;-83
2021/04/19 14:06:45;;;;;;;15.70;12.27;;;12.70;96.30;;;;;;4954122;28;20202;-84
2021/04/19 14:09:10;;;;;;;16.53;13.23;;;12.80;96.30;;;;;;4955367;28;20530;-84
2021/04/19 14:11:36;;;;;;;18.20;13.60;;;12.90;96.30;;;;;;4954190;28;20195;-83
2021/04/19 14:14:02;;;;;;;14.57;13.00;;;12.90;96.00;;;;;;4954047;29;20179;-84
2021/04/19 14:16:27;;;;;;;15.53;12.73;;;12.70;96.30;;;;;;4954122;29;20190;-84
2021/04/19 14:18:53;;;;;;;16.83;13.70;;;12.70;96.30;;;;;;4953645;29;20583;-84
2021/04/19 14:21:24;;;;;;;17.93;14.00;;;12.60;96.30;;;;;;5110154;27;21044;-82
2021/04/19 14:23:50;;;;;;;18.67;14.00;;;12.50;96.20;;;;;;5110243;28;20400;-83
2021/04/19 14:26:15;;;;;;;18.50;13.50;;;12.40;96.30;;;;;;5109257;28;20265;-83
2021/04/19 14:28:41;;;;;;;16.70;13.90;;;12.40;96.30;;;;;;5108458;28;20199;-83
2021/04/19 14:31:08;;;;;;;16.90;14.30;;;12.30;96.30;;;;;;5110877;28;20193;-82
2021/04/19 14:33:34;;;;;;;14.80;12.10;;;12.20;96.30;;;;;;5114912;28;20189;-82
2021/04/19 14:35:59;;;;;;;17.83;13.37;;;12.30;96.30;;;;;;5108695;28;20403;-82
2021/04/19 14:38:25;;;;;;;16.70;13.20;;;12.30;96.30;;;;;;5108217;28;20205;-82
2021/04/19 14:40:50;;;;;;;16.50;13.60;;;12.20;96.30;;;;;;5108520;28;20209;-82
2021/04/19 14:43:18;;;;;;;16.97;13.87;;;12.10;96.30;;;;;;5108548;28;20169;-82
2021/04/19 14:45:43;;;;;;;17.90;13.83;;;12.20;96.30;;;;;;5108683;28;20181;-82
2021/04/19 14:48:09;;;;;;;16.10;13.30;;;12.10;96.30;;;;;;5109582;28;20404;-82
2021/04/19 14:50:36;;;;;;;18.67;13.90;;;12.00;96.30;;;;;;5110077;28;20226;-82
2021/04/19 14:53:01;;;;;;;17.13;14.03;;;11.80;96.30;;;;;;5110167;28;20181;-82
2021/04/19 14:55:27;;;;;;;16.80;14.10;;;11.80;96.30;;;;;;5108967;28;20601;-82
2021/04/19 14:57:53;;;;;;;18.57;13.77;;;11.90;96.30;;;;;;5110822;28;20197;-82
2021/04/19 15:00:19;;;;;;;17.60;13.50;;;11.90;96.30;;;;;;5111203;28;20612;-83
2021/04/19 15:02:44;;;;;;;21.63;15.67;;;11.80;96.30;;;;;;5111355;28;20899;-82
2021/04/19 15:05:10;;;;;;;21.00;13.30;;;11.70;96.30;;;;;;5109222;28;20400;-82
2021/04/19 15:07:36;;;;;;;18.17;14.00;;;11.70;96.30;;;;;;5109225;28;20166;-80
2021/04/19 15:10:02;;;;;;;18.57;14.27;;;11.60;96.30;;;;;;5109851;28;20414;-83
2021/04/19 15:12:27;;;;;;;18.27;14.50;;;11.40;96.30;;;;;;5109387;28;20201;-84
2021/04/19 15:14:53;;;;;;;17.93;13.37;;;11.40;96.30;;;;;;5109397;28;20185;-83
2021/04/19 15:17:18;;;;;;;16.80;14.03;;;11.40;96.30;;;;;;5108903;28;20189;-84
2021/04/19 15:19:46;;;;;;;16.70;13.80;;;11.40;96.30;;;;;;5110468;28;20209;-84
2021/04/19 15:22:11;;;;;;;16.47;14.50;;;11.40;96.30;;;;;;5109298;28;20189;-84
2021/04/19 15:24:37;;;;;;;18.60;14.17;;;11.50;96.30;;;;;;5109408;28;20911;-84
2021/04/19 15:27:03;;;;;;;18.30;14.70;;;11.60;96.30;;;;;;5108985;28;20170;-82
2021/04/19 15:29:32;;;;;;;21.00;15.00;;;11.70;96.30;;;;;;5113175;28;20668;-83
2021/04/19 15:31:58;;;;;;;17.43;13.97;;;11.60;96.30;;;;;;5104994;28;20194;-84
2021/04/19 15:34:23;;;;;;;16.47;13.73;;;11.70;96.30;;;;;;5097331;28;20408;-84
2021/04/19 15:36:49;;;;;;;16.93;13.47;;;11.60;96.30;;;;;;5095757;28;20189;-83
2021/04/19 15:39:15;;;;;;;16.60;13.00;;;11.40;96.30;;;;;;5095189;28;20563;-83
2021/04/19 15:41:42;;;;;;;18.20;14.30;;;11.20;96.30;;;;;;5096376;28;20183;-83
2021/04/19 15:44:08;;;;;;;17.07;13.87;;;11.10;96.30;;;;;;5095882;28;20419;-83
2021/04/19 15:46:34;;;;;;;17.43;14.30;;;11.00;96.30;;;;;;5096173;28;20408;-83
2021/04/19 15:49:00;;;;;;;19.37;13.77;;;11.30;96.30;;;;;;5096055;28;20216;-83
2021/04/19 15:51:25;;;;;;;20.10;14.97;;;11.50;96.30;;;;;;5096932;28;20436;-81
2021/04/19 15:53:51;;;;;;;16.17;14.30;;;11.90;96.30;;;;;;5096533;28;20224;-83
2021/04/19 15:56:18;;;;;;;16.80;13.97;;;12.10;96.30;;;;;;5098641;28;20181;-83
2021/04/19 15:58:43;;;;;;;17.13;13.70;;;12.50;96.30;;;;;;5096941;28;20412;-83
2021/04/19 16:01:09;;;;;;;18.37;14.30;;;12.80;96.30;;;;;;5095169;28;20475;-83
2021/04/19 16:03:34;;;;;;;20.77;15.93;;;12.80;96.10;;;;;;5095022;28;20204;-83
2021/04/19 16:06:00;;;;;;;15.60;13.27;;;12.70;96.30;;;;;;5094527;28;20177;-83
2021/04/19 16:08:26;;;;;;;20.00;14.97;;;12.70;96.30;;;;;;5095812;28;20182;-84
2021/04/19 16:10:51;;;;;;;17.23;14.23;;;12.70;95.80;;;;;;5095028;28;20216;-83
2021/04/19 16:13:17;;;;;;;16.80;13.60;;;12.60;96.30;;;;;;5096094;28;20186;-83
2021/04/19 16:15:43;;;;;;;17.67;13.90;;;12.20;96.30;;;;;;5079168;22;20228;-75
2021/04/19 16:18:09;;;;;;;15.73;13.50;;;12.00;96.30;;;;;;5033785;28;20699;-75
2021/04/19 16:20:34;;;;;;;18.90;13.87;;;11.90;96.30;;;;;;5034013;28;20593;-75
2021/04/19 16:23:00;;;;;;;20.17;14.40;;;11.80;96.30;;;;;;5049342;28;20170;-75
2021/04/19 16:25:25;;;;;;;17.40;14.13;;;11.60;96.30;;;;;;5043728;28;20225;-75
2021/04/19 16:27:51;;;;;;;17.80;14.47;;;11.40;96.30;;;;;;5053172;28;20251;-75
2021/04/19 16:30:19;;;;;;;17.93;14.07;;;11.20;96.30;;;;;;5053485;28;20176;-74
2021/04/19 16:32:47;;;;;;;17.80;13.23;;;11.00;96.30;;;;;;5053607;28;20168;-75
2021/04/19 16:35:14;;;;;;;16.63;13.23;;;11.00;96.30;;;;;;5052993;28;20426;-75
2021/04/19 16:37:39;;;;;;;17.70;14.70;;;10.90;96.30;;;;;;5042271;28;20451;-75
2021/04/19 16:40:06;;;;;;;17.80;14.30;;;11.00;96.30;;;;;;5042531;28;20490;-75